sensor_id;sensor_type;location;lat;lon;timestamp;pressure;altitude;pressure_sealevel;temperature;humidity
22862;BME280;11598;50.652;6.172;2022-07-05T00:04:56;97001.31;;;11.81;82.16
22862;BME280;11598;50.652;6.172;2022-07-05T00:14:56;97000.19;;;11.73;82.79
22862;BME280;11598;50.652;6.172;2022-07-05T00:24:57;96990.97;;;11.56;83.47
22862;BME280;11598;50.652;6.172;2022-07-05T00:34:57;97000.44;;;11.44;84.13
22862;BME280;11598;50.652;6.172;2022-07-05T00:44:58;97001.31;;;11.32;84.77
22862;BME280;11598;50.652;6.172;2022-07-05T00:54:58;97001.59;;;11.14;85.40
22862;BME280;11598;50.652;6.172;2022-07-05T01:04:58;96996.41;;;11.02;85.99
22862;BME280;11598;50.652;6.172;2022-07-05T01:15:01;96996.31;;;10.90;86.44
22862;BME280;11598;50.652;6.172;2022-07-05T01:25:02;96991.41;;;10.73;86.84
22862;BME280;11598;50.652;6.172;2022-07-05T01:35:03;96991.50;;;10.58;87.49
22862;BME280;11598;50.652;6.172;2022-07-05T01:45:04;96984.69;;;10.43;87.88
22862;BME280;11598;50.652;6.172;2022-07-05T01:55:05;96980.94;;;10.20;87.72
22862;BME280;11598;50.652;6.172;2022-07-05T02:05:06;96978.53;;;10.04;88.25
22862;BME280;11598;50.652;6.172;2022-07-05T02:15:07;96978.81;;;10.00;88.19
22862;BME280;11598;50.652;6.172;2022-07-05T02:25:08;96969.13;;;10.02;88.99
22862;BME280;11598;50.652;6.172;2022-07-05T02:35:09;96975.19;;;10.02;89.33
22862;BME280;11598;50.652;6.172;2022-07-05T02:45:10;96977.66;;;10.04;89.95
22862;BME280;11598;50.652;6.172;2022-07-05T02:55:11;96976.22;;;10.00;90.32
22862;BME280;11598;50.652;6.172;2022-07-05T03:05:11;96983.94;;;9.87;90.93
22862;BME280;11598;50.652;6.172;2022-07-05T03:15:12;96986.19;;;9.79;91.06
22862;BME280;11598;50.652;6.172;2022-07-05T03:25:12;96987.41;;;9.73;91.14
22862;BME280;11598;50.652;6.172;2022-07-05T03:35:12;96990.81;;;9.88;91.42
22862;BME280;11598;50.652;6.172;2022-07-05T03:45:13;96997.69;;;10.16;91.69
22862;BME280;11598;50.652;6.172;2022-07-05T03:55:13;96984.47;;;10.33;91.76
22862;BME280;11598;50.652;6.172;2022-07-05T04:05:13;96998.31;;;10.47;92.17
22862;BME280;11598;50.652;6.172;2022-07-05T04:15:14;96993.06;;;10.61;91.73
22862;BME280;11598;50.652;6.172;2022-07-05T04:25:15;97011.06;;;10.90;91.80
22862;BME280;11598;50.652;6.172;2022-07-05T04:35:18;97009.28;;;11.29;92.23
22862;BME280;11598;50.652;6.172;2022-07-05T04:45:19;97008.94;;;11.59;91.94
22862;BME280;11598;50.652;6.172;2022-07-05T04:55:19;97017.75;;;11.82;91.82
22862;BME280;11598;50.652;6.172;2022-07-05T05:05:20;97030.66;;;12.09;91.20
22862;BME280;11598;50.652;6.172;2022-07-05T05:15:20;97024.25;;;12.61;90.71
22862;BME280;11598;50.652;6.172;2022-07-05T05:25:21;97022.72;;;13.05;89.50
22862;BME280;11598;50.652;6.172;2022-07-05T05:35:21;97030.41;;;13.07;89.41
22862;BME280;11598;50.652;6.172;2022-07-05T05:45:23;97028.94;;;14.61;88.72
22862;BME280;11598;50.652;6.172;2022-07-05T05:55:25;97050.50;;;16.58;81.88
22862;BME280;11598;50.652;6.172;2022-07-05T06:05:26;97059.63;;;17.22;78.22
22862;BME280;11598;50.652;6.172;2022-07-05T06:15:27;97064.53;;;17.45;73.66
22862;BME280;11598;50.652;6.172;2022-07-05T06:25:28;97067.31;;;17.43;73.78
22862;BME280;11598;50.652;6.172;2022-07-05T06:35:29;97062.31;;;18.25;70.73
22862;BME280;11598;50.652;6.172;2022-07-05T06:45:30;97069.56;;;18.86;68.18
22862;BME280;11598;50.652;6.172;2022-07-05T06:55:30;97067.03;;;19.20;65.73
22862;BME280;11598;50.652;6.172;2022-07-05T07:05:31;97077.56;;;19.20;63.48
22862;BME280;11598;50.652;6.172;2022-07-05T07:15:31;97084.03;;;19.70;59.50
22862;BME280;11598;50.652;6.172;2022-07-05T07:25:33;97085.00;;;20.03;56.67
22862;BME280;11598;50.652;6.172;2022-07-05T07:35:34;97087.81;;;20.44;56.76
22862;BME280;11598;50.652;6.172;2022-07-05T07:45:34;97101.81;;;21.04;52.16
22862;BME280;11598;50.652;6.172;2022-07-05T07:55:35;97115.81;;;20.88;52.65
22862;BME280;11598;50.652;6.172;2022-07-05T08:05:35;97114.03;;;21.29;50.05
22862;BME280;11598;50.652;6.172;2022-07-05T08:15:35;97112.06;;;21.64;49.43
22862;BME280;11598;50.652;6.172;2022-07-05T08:25:36;97118.72;;;23.18;46.27
22862;BME280;11598;50.652;6.172;2022-07-05T08:35:36;97106.28;;;22.33;44.85
22862;BME280;11598;50.652;6.172;2022-07-05T08:45:37;97104.22;;;22.43;46.59
22862;BME280;11598;50.652;6.172;2022-07-05T08:55:39;97106.03;;;22.51;46.33
22862;BME280;11598;50.652;6.172;2022-07-05T09:05:42;97114.22;;;21.44;46.45
22862;BME280;11598;50.652;6.172;2022-07-05T09:15:43;97126.81;;;20.24;46.10
22862;BME280;11598;50.652;6.172;2022-07-05T09:25:43;97126.16;;;19.88;47.38
22862;BME280;11598;50.652;6.172;2022-07-05T09:35:52;97123.56;;;19.96;47.62
22862;BME280;11598;50.652;6.172;2022-07-05T09:45:59;97123.00;;;20.19;46.09
22862;BME280;11598;50.652;6.172;2022-07-05T09:56:01;97125.13;;;19.63;48.67
22862;BME280;11598;50.652;6.172;2022-07-05T10:06:11;97119.81;;;19.55;47.55
22862;BME280;11598;50.652;6.172;2022-07-05T10:16:12;97113.97;;;19.43;48.10
22862;BME280;11598;50.652;6.172;2022-07-05T10:26:15;97122.28;;;19.74;48.36
22862;BME280;11598;50.652;6.172;2022-07-05T10:36:16;97127.56;;;19.56;49.44
22862;BME280;11598;50.652;6.172;2022-07-05T10:46:33;97133.00;;;19.55;50.60
22862;BME280;11598;50.652;6.172;2022-07-05T10:56:33;97131.84;;;19.31;50.27
22862;BME280;11598;50.652;6.172;2022-07-05T11:16:38;97124.63;;;19.15;51.38
22862;BME280;11598;50.652;6.172;2022-07-05T11:26:39;97120.53;;;19.39;51.51
22862;BME280;11598;50.652;6.172;2022-07-05T11:36:39;97113.31;;;19.67;50.80
22862;BME280;11598;50.652;6.172;2022-07-05T11:46:41;97111.88;;;19.73;50.22
22862;BME280;11598;50.652;6.172;2022-07-05T11:56:42;97108.97;;;19.76;51.33
22862;BME280;11598;50.652;6.172;2022-07-05T12:06:42;97108.50;;;20.57;49.88
22862;BME280;11598;50.652;6.172;2022-07-05T12:16:43;97099.03;;;20.46;49.89
22862;BME280;11598;50.652;6.172;2022-07-05T12:26:43;97091.81;;;20.14;49.83
22862;BME280;11598;50.652;6.172;2022-07-05T12:36:44;97097.03;;;20.32;48.37
22862;BME280;11598;50.652;6.172;2022-07-05T12:46:44;97102.31;;;20.32;48.59
22862;BME280;11598;50.652;6.172;2022-07-05T12:56:53;97104.75;;;20.34;47.84
22862;BME280;11598;50.652;6.172;2022-07-05T13:07:25;97098.94;;;20.14;48.42
22862;BME280;11598;50.652;6.172;2022-07-05T13:17:25;97101.94;;;20.27;48.19
22862;BME280;11598;50.652;6.172;2022-07-05T13:27:25;97112.47;;;20.19;46.48
22862;BME280;11598;50.652;6.172;2022-07-05T13:37:26;97098.84;;;19.97;47.52
22862;BME280;11598;50.652;6.172;2022-07-05T13:47:26;97107.53;;;20.24;46.91
22862;BME280;11598;50.652;6.172;2022-07-05T13:57:26;97112.34;;;20.28;46.54
22862;BME280;11598;50.652;6.172;2022-07-05T14:07:28;97104.47;;;20.45;45.72
22862;BME280;11598;50.652;6.172;2022-07-05T14:17:28;97108.75;;;20.38;47.15
22862;BME280;11598;50.652;6.172;2022-07-05T14:27:28;97105.03;;;20.22;48.12
22862;BME280;11598;50.652;6.172;2022-07-05T14:37:29;97100.28;;;20.26;48.70
22862;BME280;11598;50.652;6.172;2022-07-05T14:47:29;97102.06;;;20.17;48.72
22862;BME280;11598;50.652;6.172;2022-07-05T14:57:30;97083.53;;;20.01;48.56
22862;BME280;11598;50.652;6.172;2022-07-05T15:07:30;97079.38;;;20.33;47.91
22862;BME280;11598;50.652;6.172;2022-07-05T15:17:30;97076.81;;;20.06;48.48
22862;BME280;11598;50.652;6.172;2022-07-05T15:27:33;97069.09;;;19.87;48.88
22862;BME280;11598;50.652;6.172;2022-07-05T15:37:34;97078.25;;;20.01;49.06
22862;BME280;11598;50.652;6.172;2022-07-05T15:47:34;97066.88;;;20.00;47.71
22862;BME280;11598;50.652;6.172;2022-07-05T15:57:36;97065.78;;;20.11;47.63
22862;BME280;11598;50.652;6.172;2022-07-05T16:07:37;97074.03;;;19.82;48.83
22862;BME280;11598;50.652;6.172;2022-07-05T16:17:37;97074.22;;;19.80;50.40
22862;BME280;11598;50.652;6.172;2022-07-05T16:27:37;97079.72;;;19.43;52.77
22862;BME280;11598;50.652;6.172;2022-07-05T16:37:38;97078.97;;;19.33;53.13
22862;BME280;11598;50.652;6.172;2022-07-05T16:47:38;97091.28;;;19.06;54.64
22862;BME280;11598;50.652;6.172;2022-07-05T16:57:38;97093.63;;;18.91;55.18
22862;BME280;11598;50.652;6.172;2022-07-05T17:07:39;97094.69;;;18.98;55.83
22862;BME280;11598;50.652;6.172;2022-07-05T17:17:39;97112.56;;;18.95;56.54
22862;BME280;11598;50.652;6.172;2022-07-05T17:27:40;97121.22;;;18.59;57.87
22862;BME280;11598;50.652;6.172;2022-07-05T17:37:40;97127.19;;;18.34;58.78
22862;BME280;11598;50.652;6.172;2022-07-05T17:47:40;97134.78;;;18.09;59.64
22862;BME280;11598;50.652;6.172;2022-07-05T17:57:41;97135.56;;;17.82;60.28
22862;BME280;11598;50.652;6.172;2022-07-05T18:07:41;97149.84;;;17.60;60.71
22862;BME280;11598;50.652;6.172;2022-07-05T18:17:41;97165.63;;;17.31;60.98
22862;BME280;11598;50.652;6.172;2022-07-05T18:27:42;97176.97;;;17.12;61.16
22862;BME280;11598;50.652;6.172;2022-07-05T18:37:43;97174.06;;;16.96;61.25
22862;BME280;11598;50.652;6.172;2022-07-05T18:47:43;97179.09;;;16.78;61.66
22862;BME280;11598;50.652;6.172;2022-07-05T18:57:43;97193.81;;;16.59;62.40
22862;BME280;11598;50.652;6.172;2022-07-05T19:07:44;97197.22;;;16.40;62.72
22862;BME280;11598;50.652;6.172;2022-07-05T19:18:03;97205.13;;;16.19;62.88
22862;BME280;11598;50.652;6.172;2022-07-05T19:28:03;97213.84;;;15.99;63.07
22862;BME280;11598;50.652;6.172;2022-07-05T19:38:04;97208.38;;;15.81;63.27
22862;BME280;11598;50.652;6.172;2022-07-05T19:48:05;97229.84;;;15.63;64.00
22862;BME280;11598;50.652;6.172;2022-07-05T19:58:06;97231.25;;;15.47;64.07
22862;BME280;11598;50.652;6.172;2022-07-05T20:08:07;97252.94;;;15.37;64.40
22862;BME280;11598;50.652;6.172;2022-07-05T20:18:07;97260.38;;;15.21;64.53
22862;BME280;11598;50.652;6.172;2022-07-05T20:28:08;97266.59;;;15.09;64.65
22862;BME280;11598;50.652;6.172;2022-07-05T20:38:09;97274.81;;;14.93;64.57
22862;BME280;11598;50.652;6.172;2022-07-05T20:48:09;97274.13;;;14.79;64.19
22862;BME280;11598;50.652;6.172;2022-07-05T20:58:10;97290.75;;;14.67;63.99
22862;BME280;11598;50.652;6.172;2022-07-05T21:08:10;97304.03;;;14.53;63.73
22862;BME280;11598;50.652;6.172;2022-07-05T21:18:11;97323.63;;;14.36;63.65
22862;BME280;11598;50.652;6.172;2022-07-05T21:28:11;97331.69;;;14.22;63.88
22862;BME280;11598;50.652;6.172;2022-07-05T21:38:11;97332.25;;;14.03;64.73
22862;BME280;11598;50.652;6.172;2022-07-05T21:48:12;97341.75;;;13.80;65.54
22862;BME280;11598;50.652;6.172;2022-07-05T21:58:12;97354.34;;;13.50;66.86
22862;BME280;11598;50.652;6.172;2022-07-05T22:08:12;97360.03;;;13.19;67.94
22862;BME280;11598;50.652;6.172;2022-07-05T22:18:13;97357.69;;;12.90;69.08
22862;BME280;11598;50.652;6.172;2022-07-05T22:28:13;97363.22;;;12.60;70.02
22862;BME280;11598;50.652;6.172;2022-07-05T22:38:13;97353.84;;;12.32;70.82
22862;BME280;11598;50.652;6.172;2022-07-05T22:48:14;97348.88;;;12.01;71.86
22862;BME280;11598;50.652;6.172;2022-07-05T22:58:14;97346.59;;;11.70;72.79
22862;BME280;11598;50.652;6.172;2022-07-05T23:08:15;97343.56;;;11.36;73.80
22862;BME280;11598;50.652;6.172;2022-07-05T23:18:15;97355.31;;;11.00;74.89
22862;BME280;11598;50.652;6.172;2022-07-05T23:28:15;97359.25;;;10.64;75.88
22862;BME280;11598;50.652;6.172;2022-07-05T23:38:16;97353.84;;;10.39;76.98
22862;BME280;11598;50.652;6.172;2022-07-05T23:48:16;97365.47;;;10.17;77.53
22862;BME280;11598;50.652;6.172;2022-07-05T23:58:16;97364.03;;;9.97;78.46
